sensor_id;sensor_type;location;lat;lon;timestamp;temperature;humidity
2024;DHT22;1016;48.770;9.154;2023-02-28T00:00:27;3.20;59.80
2024;DHT22;1016;48.770;9.154;2023-02-28T00:02:53;3.20;60.20
2024;DHT22;1016;48.770;9.154;2023-02-28T00:05:20;3.20;60.40
2024;DHT22;1016;48.770;9.154;2023-02-28T00:07:46;3.20;60.60
2024;DHT22;1016;48.770;9.154;2023-02-28T00:10:14;3.20;60.80
2024;DHT22;1016;48.770;9.154;2023-02-28T00:12:41;3.20;60.80
2024;DHT22;1016;48.770;9.154;2023-02-28T00:15:10;3.20;61.10
2024;DHT22;1016;48.770;9.154;2023-02-28T00:17:37;3.20;61.10
2024;DHT22;1016;48.770;9.154;2023-02-28T00:20:03;3.20;61.40
2024;DHT22;1016;48.770;9.154;2023-02-28T00:22:30;3.20;61.50
2024;DHT22;1016;48.770;9.154;2023-02-28T00:24:56;3.20;61.20
2024;DHT22;1016;48.770;9.154;2023-02-28T00:27:21;3.10;61.50
2024;DHT22;1016;48.770;9.154;2023-02-28T00:29:47;3.10;61.70
2024;DHT22;1016;48.770;9.154;2023-02-28T00:32:12;3.10;61.70
2024;DHT22;1016;48.770;9.154;2023-02-28T00:34:38;3.00;61.60
2024;DHT22;1016;48.770;9.154;2023-02-28T00:37:08;3.00;61.90
2024;DHT22;1016;48.770;9.154;2023-02-28T00:39:36;3.00;62.00
2024;DHT22;1016;48.770;9.154;2023-02-28T00:44:28;3.00;61.70
2024;DHT22;1016;48.770;9.154;2023-02-28T00:46:54;2.90;62.30
2024;DHT22;1016;48.770;9.154;2023-02-28T00:49:20;3.00;62.80
2024;DHT22;1016;48.770;9.154;2023-02-28T00:51:46;3.00;63.10
2024;DHT22;1016;48.770;9.154;2023-02-28T00:54:12;3.00;63.00
2024;DHT22;1016;48.770;9.154;2023-02-28T00:56:37;3.00;63.30
2024;DHT22;1016;48.770;9.154;2023-02-28T00:59:03;3.00;63.50
2024;DHT22;1016;48.770;9.154;2023-02-28T01:01:28;3.00;63.60
2024;DHT22;1016;48.770;9.154;2023-02-28T01:03:54;3.00;63.80
2024;DHT22;1016;48.770;9.154;2023-02-28T01:06:19;3.00;63.90
2024;DHT22;1016;48.770;9.154;2023-02-28T01:11:12;2.80;63.60
2024;DHT22;1016;48.770;9.154;2023-02-28T01:13:38;2.80;64.60
2024;DHT22;1016;48.770;9.154;2023-02-28T01:16:04;2.80;64.50
2024;DHT22;1016;48.770;9.154;2023-02-28T01:18:30;2.80;65.00
2024;DHT22;1016;48.770;9.154;2023-02-28T01:20:56;2.90;65.40
2024;DHT22;1016;48.770;9.154;2023-02-28T01:23:23;2.80;65.20
2024;DHT22;1016;48.770;9.154;2023-02-28T01:25:49;2.80;65.40
2024;DHT22;1016;48.770;9.154;2023-02-28T01:28:15;2.80;65.80
2024;DHT22;1016;48.770;9.154;2023-02-28T01:30:41;2.90;66.30
2024;DHT22;1016;48.770;9.154;2023-02-28T01:33:06;2.90;66.50
2024;DHT22;1016;48.770;9.154;2023-02-28T01:35:33;2.80;66.50
2024;DHT22;1016;48.770;9.154;2023-02-28T01:37:59;2.80;66.60
2024;DHT22;1016;48.770;9.154;2023-02-28T01:40:25;2.80;66.50
2024;DHT22;1016;48.770;9.154;2023-02-28T01:42:50;2.80;66.90
2024;DHT22;1016;48.770;9.154;2023-02-28T01:45:26;2.80;66.90
2024;DHT22;1016;48.770;9.154;2023-02-28T01:47:55;2.80;67.60
2024;DHT22;1016;48.770;9.154;2023-02-28T01:50:26;2.80;67.90
2024;DHT22;1016;48.770;9.154;2023-02-28T01:52:56;2.80;68.10
2024;DHT22;1016;48.770;9.154;2023-02-28T01:55:23;2.80;68.30
2024;DHT22;1016;48.770;9.154;2023-02-28T01:57:52;2.90;68.50
2024;DHT22;1016;48.770;9.154;2023-02-28T02:00:23;2.90;68.90
2024;DHT22;1016;48.770;9.154;2023-02-28T02:02:54;2.90;69.10
2024;DHT22;1016;48.770;9.154;2023-02-28T02:05:27;2.90;69.20
2024;DHT22;1016;48.770;9.154;2023-02-28T02:08:02;2.90;69.40
2024;DHT22;1016;48.770;9.154;2023-02-28T02:10:36;2.90;69.60
2024;DHT22;1016;48.770;9.154;2023-02-28T02:15:42;2.90;70.20
2024;DHT22;1016;48.770;9.154;2023-02-28T02:26:52;2.90;71.20
2024;DHT22;1016;48.770;9.154;2023-02-28T02:32:16;2.80;71.80
2024;DHT22;1016;48.770;9.154;2023-02-28T02:37:27;2.80;72.40
2024;DHT22;1016;48.770;9.154;2023-02-28T02:40:10;2.70;72.70
2024;DHT22;1016;48.770;9.154;2023-02-28T02:42:40;2.60;72.80
2024;DHT22;1016;48.770;9.154;2023-02-28T02:45:21;2.60;73.30
2024;DHT22;1016;48.770;9.154;2023-02-28T02:47:48;2.50;73.90
2024;DHT22;1016;48.770;9.154;2023-02-28T02:50:24;2.50;74.20
2024;DHT22;1016;48.770;9.154;2023-02-28T02:52:54;2.50;74.80
2024;DHT22;1016;48.770;9.154;2023-02-28T02:55:22;2.50;75.20
2024;DHT22;1016;48.770;9.154;2023-02-28T02:57:53;2.50;75.60
2024;DHT22;1016;48.770;9.154;2023-02-28T03:00:23;2.50;76.20
2024;DHT22;1016;48.770;9.154;2023-02-28T03:02:52;2.50;76.70
2024;DHT22;1016;48.770;9.154;2023-02-28T03:05:44;2.50;76.90
2024;DHT22;1016;48.770;9.154;2023-02-28T03:08:11;2.50;77.40
2024;DHT22;1016;48.770;9.154;2023-02-28T03:10:42;2.50;78.00
2024;DHT22;1016;48.770;9.154;2023-02-28T03:13:32;2.60;78.60
2024;DHT22;1016;48.770;9.154;2023-02-28T03:27:30;2.40;80.10
2024;DHT22;1016;48.770;9.154;2023-02-28T03:30:17;2.50;80.80
2024;DHT22;1016;48.770;9.154;2023-02-28T03:32:55;2.50;81.20
2024;DHT22;1016;48.770;9.154;2023-02-28T03:35:25;2.50;81.50
2024;DHT22;1016;48.770;9.154;2023-02-28T03:38:11;2.40;81.80
2024;DHT22;1016;48.770;9.154;2023-02-28T03:40:43;2.40;82.40
2024;DHT22;1016;48.770;9.154;2023-02-28T03:43:13;2.40;82.60
2024;DHT22;1016;48.770;9.154;2023-02-28T03:45:41;2.40;83.40
2024;DHT22;1016;48.770;9.154;2023-02-28T03:48:11;2.40;83.70
2024;DHT22;1016;48.770;9.154;2023-02-28T03:50:41;2.40;84.10
2024;DHT22;1016;48.770;9.154;2023-02-28T03:53:19;2.50;84.80
2024;DHT22;1016;48.770;9.154;2023-02-28T03:55:54;2.50;85.00
2024;DHT22;1016;48.770;9.154;2023-02-28T04:01:08;2.50;86.50
2024;DHT22;1016;48.770;9.154;2023-02-28T04:03:37;2.50;86.00
2024;DHT22;1016;48.770;9.154;2023-02-28T04:06:05;2.50;86.50
2024;DHT22;1016;48.770;9.154;2023-02-28T04:08:32;2.50;86.90
2024;DHT22;1016;48.770;9.154;2023-02-28T04:11:02;2.60;87.40
2024;DHT22;1016;48.770;9.154;2023-02-28T04:13:28;2.60;87.10
2024;DHT22;1016;48.770;9.154;2023-02-28T04:15:54;2.50;87.30
2024;DHT22;1016;48.770;9.154;2023-02-28T04:18:19;2.50;87.80
2024;DHT22;1016;48.770;9.154;2023-02-28T04:20:45;2.50;88.10
2024;DHT22;1016;48.770;9.154;2023-02-28T04:23:10;2.60;88.00
2024;DHT22;1016;48.770;9.154;2023-02-28T04:25:35;2.60;88.40
2024;DHT22;1016;48.770;9.154;2023-02-28T04:28:01;2.70;88.90
2024;DHT22;1016;48.770;9.154;2023-02-28T04:30:26;2.60;88.90
2024;DHT22;1016;48.770;9.154;2023-02-28T04:32:52;2.70;89.20
2024;DHT22;1016;48.770;9.154;2023-02-28T04:35:17;2.70;89.20
2024;DHT22;1016;48.770;9.154;2023-02-28T04:37:43;2.80;90.10
2024;DHT22;1016;48.770;9.154;2023-02-28T04:40:09;2.90;90.10
2024;DHT22;1016;48.770;9.154;2023-02-28T04:42:35;3.00;90.20
2024;DHT22;1016;48.770;9.154;2023-02-28T04:45:04;3.10;90.10
2024;DHT22;1016;48.770;9.154;2023-02-28T04:47:30;3.30;89.50
2024;DHT22;1016;48.770;9.154;2023-02-28T04:49:56;3.30;88.80
2024;DHT22;1016;48.770;9.154;2023-02-28T04:52:22;3.20;88.50
2024;DHT22;1016;48.770;9.154;2023-02-28T04:54:47;3.30;88.90
2024;DHT22;1016;48.770;9.154;2023-02-28T04:57:13;3.30;88.70
2024;DHT22;1016;48.770;9.154;2023-02-28T04:59:38;3.30;88.70
2024;DHT22;1016;48.770;9.154;2023-02-28T05:02:04;3.20;88.90
2024;DHT22;1016;48.770;9.154;2023-02-28T05:04:33;3.30;89.20
2024;DHT22;1016;48.770;9.154;2023-02-28T05:06:59;3.40;89.60
2024;DHT22;1016;48.770;9.154;2023-02-28T05:09:25;3.30;89.20
2024;DHT22;1016;48.770;9.154;2023-02-28T05:11:50;3.40;89.10
2024;DHT22;1016;48.770;9.154;2023-02-28T05:14:16;3.40;88.90
2024;DHT22;1016;48.770;9.154;2023-02-28T05:16:42;3.30;88.40
2024;DHT22;1016;48.770;9.154;2023-02-28T05:19:08;3.20;88.50
2024;DHT22;1016;48.770;9.154;2023-02-28T05:21:36;3.10;88.80
2024;DHT22;1016;48.770;9.154;2023-02-28T05:24:05;3.10;89.10
2024;DHT22;1016;48.770;9.154;2023-02-28T05:26:34;3.10;89.00
2024;DHT22;1016;48.770;9.154;2023-02-28T05:29:00;3.00;89.00
2024;DHT22;1016;48.770;9.154;2023-02-28T05:31:25;2.90;89.80
2024;DHT22;1016;48.770;9.154;2023-02-28T05:33:51;2.90;90.00
2024;DHT22;1016;48.770;9.154;2023-02-28T05:36:17;2.80;90.00
2024;DHT22;1016;48.770;9.154;2023-02-28T05:38:42;2.60;90.30
2024;DHT22;1016;48.770;9.154;2023-02-28T05:41:09;2.60;90.60
2024;DHT22;1016;48.770;9.154;2023-02-28T05:43:36;2.60;90.80
2024;DHT22;1016;48.770;9.154;2023-02-28T05:46:06;2.70;91.00
2024;DHT22;1016;48.770;9.154;2023-02-28T05:48:33;2.60;91.10
2024;DHT22;1016;48.770;9.154;2023-02-28T05:50:59;2.60;91.20
2024;DHT22;1016;48.770;9.154;2023-02-28T05:53:24;2.60;91.30
2024;DHT22;1016;48.770;9.154;2023-02-28T05:55:50;2.60;91.60
2024;DHT22;1016;48.770;9.154;2023-02-28T05:58:15;2.50;91.70
2024;DHT22;1016;48.770;9.154;2023-02-28T06:00:41;2.60;92.00
2024;DHT22;1016;48.770;9.154;2023-02-28T06:03:06;2.60;92.10
2024;DHT22;1016;48.770;9.154;2023-02-28T06:05:32;2.70;92.30
2024;DHT22;1016;48.770;9.154;2023-02-28T06:07:58;2.60;92.30
2024;DHT22;1016;48.770;9.154;2023-02-28T06:10:23;2.60;92.30
2024;DHT22;1016;48.770;9.154;2023-02-28T06:12:49;2.60;92.60
2024;DHT22;1016;48.770;9.154;2023-02-28T06:15:15;2.60;92.80
2024;DHT22;1016;48.770;9.154;2023-02-28T06:17:42;2.60;92.80
2024;DHT22;1016;48.770;9.154;2023-02-28T06:20:09;2.70;93.00
2024;DHT22;1016;48.770;9.154;2023-02-28T06:22:36;2.70;93.00
2024;DHT22;1016;48.770;9.154;2023-02-28T06:25:05;2.70;93.10
2024;DHT22;1016;48.770;9.154;2023-02-28T06:27:32;2.70;93.20
2024;DHT22;1016;48.770;9.154;2023-02-28T06:29:58;2.80;93.50
2024;DHT22;1016;48.770;9.154;2023-02-28T06:32:23;2.90;93.50
2024;DHT22;1016;48.770;9.154;2023-02-28T06:34:49;2.90;93.40
2024;DHT22;1016;48.770;9.154;2023-02-28T06:37:16;2.90;93.20
2024;DHT22;1016;48.770;9.154;2023-02-28T06:39:41;2.90;93.30
2024;DHT22;1016;48.770;9.154;2023-02-28T06:42:07;3.00;93.30
2024;DHT22;1016;48.770;9.154;2023-02-28T06:44:32;2.90;93.30
2024;DHT22;1016;48.770;9.154;2023-02-28T06:47:00;3.00;93.50
2024;DHT22;1016;48.770;9.154;2023-02-28T06:49:29;3.00;93.50
2024;DHT22;1016;48.770;9.154;2023-02-28T06:51:54;3.10;93.70
2024;DHT22;1016;48.770;9.154;2023-02-28T06:54:20;3.20;93.70
2024;DHT22;1016;48.770;9.154;2023-02-28T06:56:45;3.30;93.50
2024;DHT22;1016;48.770;9.154;2023-02-28T06:59:12;3.40;93.40
2024;DHT22;1016;48.770;9.154;2023-02-28T07:01:37;3.40;93.30
2024;DHT22;1016;48.770;9.154;2023-02-28T07:04:05;3.40;93.20
2024;DHT22;1016;48.770;9.154;2023-02-28T07:06:31;3.50;93.20
2024;DHT22;1016;48.770;9.154;2023-02-28T07:08:56;3.50;92.80
2024;DHT22;1016;48.770;9.154;2023-02-28T07:11:24;3.40;92.90
2024;DHT22;1016;48.770;9.154;2023-02-28T07:13:51;3.40;92.80
2024;DHT22;1016;48.770;9.154;2023-02-28T07:16:17;3.40;92.70
2024;DHT22;1016;48.770;9.154;2023-02-28T07:18:43;3.40;92.70
2024;DHT22;1016;48.770;9.154;2023-02-28T07:21:10;3.50;92.20
2024;DHT22;1016;48.770;9.154;2023-02-28T07:23:36;3.40;92.40
2024;DHT22;1016;48.770;9.154;2023-02-28T07:26:04;3.30;92.40
2024;DHT22;1016;48.770;9.154;2023-02-28T07:28:29;3.30;92.30
2024;DHT22;1016;48.770;9.154;2023-02-28T07:30:55;3.30;92.50
2024;DHT22;1016;48.770;9.154;2023-02-28T07:33:21;3.30;91.80
2024;DHT22;1016;48.770;9.154;2023-02-28T07:35:46;3.30;92.20
2024;DHT22;1016;48.770;9.154;2023-02-28T07:38:12;3.30;92.20
2024;DHT22;1016;48.770;9.154;2023-02-28T07:40:39;3.30;92.30
2024;DHT22;1016;48.770;9.154;2023-02-28T07:43:05;3.30;92.20
2024;DHT22;1016;48.770;9.154;2023-02-28T07:45:31;3.40;92.60
2024;DHT22;1016;48.770;9.154;2023-02-28T07:48:00;3.50;92.70
2024;DHT22;1016;48.770;9.154;2023-02-28T07:50:26;3.50;92.40
2024;DHT22;1016;48.770;9.154;2023-02-28T07:52:54;3.50;92.30
2024;DHT22;1016;48.770;9.154;2023-02-28T07:55:19;3.50;92.60
2024;DHT22;1016;48.770;9.154;2023-02-28T07:57:45;3.60;92.50
2024;DHT22;1016;48.770;9.154;2023-02-28T08:00:11;3.70;92.30
2024;DHT22;1016;48.770;9.154;2023-02-28T08:02:37;3.70;92.10
2024;DHT22;1016;48.770;9.154;2023-02-28T08:05:04;3.80;91.50
2024;DHT22;1016;48.770;9.154;2023-02-28T08:07:39;3.80;91.20
2024;DHT22;1016;48.770;9.154;2023-02-28T08:10:04;3.70;90.40
2024;DHT22;1016;48.770;9.154;2023-02-28T08:12:30;3.60;90.80
2024;DHT22;1016;48.770;9.154;2023-02-28T08:14:56;3.60;91.20
2024;DHT22;1016;48.770;9.154;2023-02-28T08:17:21;3.70;90.30
2024;DHT22;1016;48.770;9.154;2023-02-28T08:19:47;3.50;90.30
2024;DHT22;1016;48.770;9.154;2023-02-28T08:22:12;3.60;90.40
2024;DHT22;1016;48.770;9.154;2023-02-28T08:24:41;3.50;90.30
2024;DHT22;1016;48.770;9.154;2023-02-28T08:27:08;3.50;90.70
2024;DHT22;1016;48.770;9.154;2023-02-28T08:29:33;3.60;90.60
2024;DHT22;1016;48.770;9.154;2023-02-28T08:31:59;3.60;90.60
2024;DHT22;1016;48.770;9.154;2023-02-28T08:34:24;3.70;90.70
2024;DHT22;1016;48.770;9.154;2023-02-28T08:36:50;3.70;90.70
2024;DHT22;1016;48.770;9.154;2023-02-28T08:39:15;3.70;90.30
2024;DHT22;1016;48.770;9.154;2023-02-28T08:41:42;3.70;90.20
2024;DHT22;1016;48.770;9.154;2023-02-28T08:44:08;3.80;90.10
2024;DHT22;1016;48.770;9.154;2023-02-28T08:46:33;3.80;90.20
2024;DHT22;1016;48.770;9.154;2023-02-28T08:48:59;3.90;90.10
2024;DHT22;1016;48.770;9.154;2023-02-28T08:51:27;3.90;90.00
2024;DHT22;1016;48.770;9.154;2023-02-28T08:53:54;3.90;90.10
2024;DHT22;1016;48.770;9.154;2023-02-28T08:56:20;3.90;89.80
2024;DHT22;1016;48.770;9.154;2023-02-28T08:58:47;3.90;89.80
2024;DHT22;1016;48.770;9.154;2023-02-28T09:01:19;3.90;89.30
2024;DHT22;1016;48.770;9.154;2023-02-28T09:03:45;4.00;89.80
2024;DHT22;1016;48.770;9.154;2023-02-28T09:06:12;4.10;89.20
2024;DHT22;1016;48.770;9.154;2023-02-28T09:08:38;4.20;89.30
2024;DHT22;1016;48.770;9.154;2023-02-28T09:11:05;4.20;88.90
2024;DHT22;1016;48.770;9.154;2023-02-28T09:13:31;4.30;89.10
2024;DHT22;1016;48.770;9.154;2023-02-28T09:16:02;4.40;88.00
2024;DHT22;1016;48.770;9.154;2023-02-28T09:18:28;4.30;87.70
2024;DHT22;1016;48.770;9.154;2023-02-28T09:20:54;4.30;87.80
2024;DHT22;1016;48.770;9.154;2023-02-28T09:23:20;4.30;87.00
2024;DHT22;1016;48.770;9.154;2023-02-28T09:25:48;4.10;87.50
2024;DHT22;1016;48.770;9.154;2023-02-28T09:28:14;4.10;87.20
2024;DHT22;1016;48.770;9.154;2023-02-28T09:30:41;4.10;87.80
2024;DHT22;1016;48.770;9.154;2023-02-28T09:33:07;4.10;87.50
2024;DHT22;1016;48.770;9.154;2023-02-28T09:35:32;4.00;87.90
2024;DHT22;1016;48.770;9.154;2023-02-28T09:37:58;4.10;88.10
2024;DHT22;1016;48.770;9.154;2023-02-28T09:40:25;4.20;88.50
2024;DHT22;1016;48.770;9.154;2023-02-28T09:42:53;4.20;88.50
2024;DHT22;1016;48.770;9.154;2023-02-28T09:45:24;4.20;88.80
2024;DHT22;1016;48.770;9.154;2023-02-28T09:47:54;4.30;88.30
2024;DHT22;1016;48.770;9.154;2023-02-28T09:50:40;4.30;87.60
2024;DHT22;1016;48.770;9.154;2023-02-28T09:53:16;4.40;87.50
2024;DHT22;1016;48.770;9.154;2023-02-28T09:55:58;4.30;87.50
2024;DHT22;1016;48.770;9.154;2023-02-28T09:58:41;4.40;87.70
2024;DHT22;1016;48.770;9.154;2023-02-28T10:06:39;4.40;87.20
2024;DHT22;1016;48.770;9.154;2023-02-28T10:09:11;4.50;86.20
2024;DHT22;1016;48.770;9.154;2023-02-28T10:11:40;4.40;86.80
2024;DHT22;1016;48.770;9.154;2023-02-28T10:14:13;4.50;85.80
2024;DHT22;1016;48.770;9.154;2023-02-28T10:16:50;4.40;85.00
2024;DHT22;1016;48.770;9.154;2023-02-28T10:22:16;4.20;85.70
2024;DHT22;1016;48.770;9.154;2023-02-28T10:24:48;4.20;85.80
2024;DHT22;1016;48.770;9.154;2023-02-28T10:27:20;4.20;85.70
2024;DHT22;1016;48.770;9.154;2023-02-28T10:29:48;4.20;86.00
2024;DHT22;1016;48.770;9.154;2023-02-28T10:32:17;4.20;86.40
2024;DHT22;1016;48.770;9.154;2023-02-28T10:34:44;4.20;86.70
2024;DHT22;1016;48.770;9.154;2023-02-28T10:37:11;4.30;86.30
2024;DHT22;1016;48.770;9.154;2023-02-28T10:39:43;4.30;86.40
2024;DHT22;1016;48.770;9.154;2023-02-28T10:42:26;4.50;86.70
2024;DHT22;1016;48.770;9.154;2023-02-28T10:47:34;4.60;86.10
2024;DHT22;1016;48.770;9.154;2023-02-28T10:50:03;4.60;86.70
2024;DHT22;1016;48.770;9.154;2023-02-28T10:52:36;4.70;86.90
2024;DHT22;1016;48.770;9.154;2023-02-28T10:55:20;4.80;86.70
2024;DHT22;1016;48.770;9.154;2023-02-28T10:57:47;4.90;86.90
2024;DHT22;1016;48.770;9.154;2023-02-28T11:00:19;5.10;86.50
2024;DHT22;1016;48.770;9.154;2023-02-28T11:02:45;5.10;84.40
2024;DHT22;1016;48.770;9.154;2023-02-28T11:05:33;5.00;84.20
2024;DHT22;1016;48.770;9.154;2023-02-28T11:08:06;5.00;84.80
2024;DHT22;1016;48.770;9.154;2023-02-28T11:10:36;5.00;85.20
2024;DHT22;1016;48.770;9.154;2023-02-28T11:13:02;5.10;85.20
2024;DHT22;1016;48.770;9.154;2023-02-28T11:15:32;5.20;84.40
2024;DHT22;1016;48.770;9.154;2023-02-28T11:17:59;5.20;83.00
2024;DHT22;1016;48.770;9.154;2023-02-28T11:20:28;5.00;83.30
2024;DHT22;1016;48.770;9.154;2023-02-28T11:22:56;5.00;84.00
2024;DHT22;1016;48.770;9.154;2023-02-28T11:25:25;5.00;84.50
2024;DHT22;1016;48.770;9.154;2023-02-28T11:27:53;5.10;83.60
2024;DHT22;1016;48.770;9.154;2023-02-28T11:30:28;5.10;83.20
2024;DHT22;1016;48.770;9.154;2023-02-28T11:32:54;5.00;83.80
2024;DHT22;1016;48.770;9.154;2023-02-28T11:37:49;5.20;84.10
2024;DHT22;1016;48.770;9.154;2023-02-28T11:41:02;5.20;84.70
2024;DHT22;1016;48.770;9.154;2023-02-28T11:48:36;5.70;82.30
2024;DHT22;1016;48.770;9.154;2023-02-28T11:51:15;5.80;82.90
2024;DHT22;1016;48.770;9.154;2023-02-28T11:53:56;5.80;82.20
2024;DHT22;1016;48.770;9.154;2023-02-28T11:56:47;5.80;82.30
2024;DHT22;1016;48.770;9.154;2023-02-28T11:59:46;5.80;81.50
2024;DHT22;1016;48.770;9.154;2023-02-28T12:02:24;5.80;82.00
2024;DHT22;1016;48.770;9.154;2023-02-28T12:10:29;5.90;81.30
2024;DHT22;1016;48.770;9.154;2023-02-28T12:13:06;6.00;81.70
2024;DHT22;1016;48.770;9.154;2023-02-28T12:15:54;6.10;80.70
2024;DHT22;1016;48.770;9.154;2023-02-28T12:24:13;6.10;79.60
2024;DHT22;1016;48.770;9.154;2023-02-28T12:26:43;6.00;80.20
2024;DHT22;1016;48.770;9.154;2023-02-28T12:29:30;6.10;79.30
2024;DHT22;1016;48.770;9.154;2023-02-28T12:32:09;6.00;79.30
2024;DHT22;1016;48.770;9.154;2023-02-28T12:34:43;6.10;80.00
2024;DHT22;1016;48.770;9.154;2023-02-28T12:37:21;6.10;79.90
2024;DHT22;1016;48.770;9.154;2023-02-28T12:39:51;6.20;80.60
2024;DHT22;1016;48.770;9.154;2023-02-28T12:42:27;6.40;80.10
2024;DHT22;1016;48.770;9.154;2023-02-28T12:44:58;6.50;78.80
2024;DHT22;1016;48.770;9.154;2023-02-28T12:47:24;6.40;78.80
2024;DHT22;1016;48.770;9.154;2023-02-28T12:49:58;6.40;79.10
2024;DHT22;1016;48.770;9.154;2023-02-28T12:55:23;6.60;79.40
2024;DHT22;1016;48.770;9.154;2023-02-28T13:00:58;8.50;78.60
2024;DHT22;1016;48.770;9.154;2023-02-28T13:09:03;11.20;72.50
2024;DHT22;1016;48.770;9.154;2023-02-28T13:11:43;11.70;69.40
2024;DHT22;1016;48.770;9.154;2023-02-28T13:14:28;11.80;65.80
2024;DHT22;1016;48.770;9.154;2023-02-28T13:16:57;11.50;64.90
2024;DHT22;1016;48.770;9.154;2023-02-28T13:19:31;11.20;63.20
2024;DHT22;1016;48.770;9.154;2023-02-28T13:21:58;12.30;65.40
2024;DHT22;1016;48.770;9.154;2023-02-28T13:29:43;17.50;61.70
2024;DHT22;1016;48.770;9.154;2023-02-28T13:34:47;17.70;52.70
2024;DHT22;1016;48.770;9.154;2023-02-28T13:40:31;17.40;50.90
2024;DHT22;1016;48.770;9.154;2023-02-28T13:43:02;17.60;49.70
2024;DHT22;1016;48.770;9.154;2023-02-28T13:45:29;17.60;49.20
2024;DHT22;1016;48.770;9.154;2023-02-28T13:48:15;17.80;48.80
2024;DHT22;1016;48.770;9.154;2023-02-28T13:50:42;16.90;47.10
2024;DHT22;1016;48.770;9.154;2023-02-28T14:07:20;19.00;44.20
2024;DHT22;1016;48.770;9.154;2023-02-28T14:15:49;20.60;42.30
2024;DHT22;1016;48.770;9.154;2023-02-28T14:18:29;20.50;41.90
2024;DHT22;1016;48.770;9.154;2023-02-28T14:23:49;21.70;40.90
2024;DHT22;1016;48.770;9.154;2023-02-28T14:37:30;20.90;37.80
2024;DHT22;1016;48.770;9.154;2023-02-28T14:39:59;20.50;37.90
2024;DHT22;1016;48.770;9.154;2023-02-28T14:42:35;20.00;37.60
2024;DHT22;1016;48.770;9.154;2023-02-28T14:45:01;19.10;37.60
2024;DHT22;1016;48.770;9.154;2023-02-28T14:47:31;18.70;38.80
2024;DHT22;1016;48.770;9.154;2023-02-28T14:49:59;18.30;38.00
2024;DHT22;1016;48.770;9.154;2023-02-28T14:52:27;18.00;38.40
2024;DHT22;1016;48.770;9.154;2023-02-28T14:55:05;18.10;38.70
2024;DHT22;1016;48.770;9.154;2023-02-28T14:57:35;16.60;37.60
2024;DHT22;1016;48.770;9.154;2023-02-28T15:02:36;15.20;38.40
2024;DHT22;1016;48.770;9.154;2023-02-28T15:05:21;14.30;39.00
2024;DHT22;1016;48.770;9.154;2023-02-28T15:07:49;13.40;39.90
2024;DHT22;1016;48.770;9.154;2023-02-28T15:13:01;11.80;76.60
2024;DHT22;1016;48.770;9.154;2023-02-28T15:15:43;11.30;41.90
2024;DHT22;1016;48.770;9.154;2023-02-28T15:18:23;11.00;43.20
2024;DHT22;1016;48.770;9.154;2023-02-28T15:20:52;10.50;43.80
2024;DHT22;1016;48.770;9.154;2023-02-28T15:23:19;10.10;43.60
2024;DHT22;1016;48.770;9.154;2023-02-28T15:25:46;10.00;44.30
2024;DHT22;1016;48.770;9.154;2023-02-28T15:28:20;9.80;45.90
2024;DHT22;1016;48.770;9.154;2023-02-28T15:30:59;9.70;46.70
2024;DHT22;1016;48.770;9.154;2023-02-28T15:33:27;9.50;47.00
2024;DHT22;1016;48.770;9.154;2023-02-28T15:36:10;9.40;47.00
2024;DHT22;1016;48.770;9.154;2023-02-28T15:38:36;9.40;48.10
2024;DHT22;1016;48.770;9.154;2023-02-28T15:41:02;9.20;47.80
2024;DHT22;1016;48.770;9.154;2023-02-28T15:43:37;9.10;48.50
2024;DHT22;1016;48.770;9.154;2023-02-28T15:46:08;9.10;49.40
2024;DHT22;1016;48.770;9.154;2023-02-28T15:48:53;9.00;49.40
2024;DHT22;1016;48.770;9.154;2023-02-28T15:51:21;8.90;49.50
2024;DHT22;1016;48.770;9.154;2023-02-28T15:53:51;8.80;49.70
2024;DHT22;1016;48.770;9.154;2023-02-28T15:58:50;8.70;50.60
2024;DHT22;1016;48.770;9.154;2023-02-28T16:01:27;8.60;50.80
2024;DHT22;1016;48.770;9.154;2023-02-28T16:04:03;8.50;51.00
2024;DHT22;1016;48.770;9.154;2023-02-28T16:09:03;8.40;51.40
2024;DHT22;1016;48.770;9.154;2023-02-28T16:11:29;8.40;52.00
2024;DHT22;1016;48.770;9.154;2023-02-28T16:13:56;8.30;52.00
2024;DHT22;1016;48.770;9.154;2023-02-28T16:16:24;8.20;52.10
2024;DHT22;1016;48.770;9.154;2023-02-28T16:18:50;8.20;52.70
2024;DHT22;1016;48.770;9.154;2023-02-28T16:21:16;8.10;52.90
2024;DHT22;1016;48.770;9.154;2023-02-28T16:23:41;8.00;53.10
2024;DHT22;1016;48.770;9.154;2023-02-28T16:26:08;8.00;53.40
2024;DHT22;1016;48.770;9.154;2023-02-28T16:28:37;8.00;53.80
2024;DHT22;1016;48.770;9.154;2023-02-28T16:31:05;7.90;53.80
2024;DHT22;1016;48.770;9.154;2023-02-28T16:33:31;7.90;54.20
2024;DHT22;1016;48.770;9.154;2023-02-28T16:35:58;7.80;54.30
2024;DHT22;1016;48.770;9.154;2023-02-28T16:38:23;7.70;54.60
2024;DHT22;1016;48.770;9.154;2023-02-28T16:40:51;7.60;54.70
2024;DHT22;1016;48.770;9.154;2023-02-28T16:43:23;7.60;55.00
2024;DHT22;1016;48.770;9.154;2023-02-28T16:45:55;7.60;55.20
2024;DHT22;1016;48.770;9.154;2023-02-28T16:48:22;7.60;55.40
2024;DHT22;1016;48.770;9.154;2023-02-28T16:50:47;7.50;55.70
2024;DHT22;1016;48.770;9.154;2023-02-28T16:53:14;7.50;56.00
2024;DHT22;1016;48.770;9.154;2023-02-28T16:55:40;7.40;56.00
2024;DHT22;1016;48.770;9.154;2023-02-28T16:58:06;7.40;56.40
2024;DHT22;1016;48.770;9.154;2023-02-28T17:00:32;7.40;56.50
2024;DHT22;1016;48.770;9.154;2023-02-28T17:02:58;7.40;56.70
2024;DHT22;1016;48.770;9.154;2023-02-28T17:05:33;7.30;56.90
2024;DHT22;1016;48.770;9.154;2023-02-28T17:08:00;7.30;57.20
2024;DHT22;1016;48.770;9.154;2023-02-28T17:10:26;7.20;57.20
2024;DHT22;1016;48.770;9.154;2023-02-28T17:12:52;7.30;57.50
2024;DHT22;1016;48.770;9.154;2023-02-28T17:15:19;7.20;57.60
2024;DHT22;1016;48.770;9.154;2023-02-28T17:20:16;7.10;57.60
2024;DHT22;1016;48.770;9.154;2023-02-28T17:22:42;7.10;58.50
2024;DHT22;1016;48.770;9.154;2023-02-28T17:25:09;7.10;58.60
2024;DHT22;1016;48.770;9.154;2023-02-28T17:27:35;7.10;58.60
2024;DHT22;1016;48.770;9.154;2023-02-28T17:30:02;7.00;58.70
2024;DHT22;1016;48.770;9.154;2023-02-28T17:32:28;6.90;58.80
2024;DHT22;1016;48.770;9.154;2023-02-28T17:34:53;6.90;59.10
2024;DHT22;1016;48.770;9.154;2023-02-28T17:37:19;6.90;59.60
2024;DHT22;1016;48.770;9.154;2023-02-28T17:39:50;6.90;59.60
2024;DHT22;1016;48.770;9.154;2023-02-28T17:42:15;6.80;59.70
2024;DHT22;1016;48.770;9.154;2023-02-28T17:44:41;6.80;60.00
2024;DHT22;1016;48.770;9.154;2023-02-28T17:47:06;6.80;60.30
2024;DHT22;1016;48.770;9.154;2023-02-28T17:49:34;6.70;60.50
2024;DHT22;1016;48.770;9.154;2023-02-28T17:52:00;6.70;60.50
2024;DHT22;1016;48.770;9.154;2023-02-28T17:54:25;6.70;60.50
2024;DHT22;1016;48.770;9.154;2023-02-28T17:56:51;6.70;60.80
2024;DHT22;1016;48.770;9.154;2023-02-28T17:59:16;6.60;61.10
2024;DHT22;1016;48.770;9.154;2023-02-28T18:01:42;6.50;75.50
2024;DHT22;1016;48.770;9.154;2023-02-28T18:04:08;6.60;69.90
2024;DHT22;1016;48.770;9.154;2023-02-28T18:06:41;6.60;62.20
2024;DHT22;1016;48.770;9.154;2023-02-28T18:09:24;6.50;62.50
2024;DHT22;1016;48.770;9.154;2023-02-28T18:11:50;6.50;62.80
2024;DHT22;1016;48.770;9.154;2023-02-28T18:14:18;6.50;63.20
2024;DHT22;1016;48.770;9.154;2023-02-28T18:16:44;6.50;63.20
2024;DHT22;1016;48.770;9.154;2023-02-28T18:19:10;6.40;63.50
2024;DHT22;1016;48.770;9.154;2023-02-28T18:21:41;6.50;63.90
2024;DHT22;1016;48.770;9.154;2023-02-28T18:24:07;6.50;64.00
2024;DHT22;1016;48.770;9.154;2023-02-28T18:26:33;6.50;64.20
2024;DHT22;1016;48.770;9.154;2023-02-28T18:28:59;6.40;64.40
2024;DHT22;1016;48.770;9.154;2023-02-28T18:31:24;6.40;64.70
2024;DHT22;1016;48.770;9.154;2023-02-28T18:33:51;6.40;65.00
2024;DHT22;1016;48.770;9.154;2023-02-28T18:36:17;6.40;65.10
2024;DHT22;1016;48.770;9.154;2023-02-28T18:38:43;6.40;65.50
2024;DHT22;1016;48.770;9.154;2023-02-28T18:41:10;6.30;65.40
2024;DHT22;1016;48.770;9.154;2023-02-28T18:43:36;6.20;65.50